sensor_id;sensor_type;location;lat;lon;timestamp;P1;durP1;ratioP1;P2;durP2;ratioP2
11533;SDS011;5823;50.588;8.462;2022-08-19T00:02:23;1.05;;;1.00;;
11533;SDS011;5823;50.588;8.462;2022-08-19T00:04:50;0.70;;;0.70;;
11533;SDS011;5823;50.588;8.462;2022-08-19T00:07:17;1.67;;;1.10;;
11533;SDS011;5823;50.588;8.462;2022-08-19T00:09:44;0.90;;;0.90;;
11533;SDS011;5823;50.588;8.462;2022-08-19T00:12:14;1.25;;;1.15;;
11533;SDS011;5823;50.588;8.462;2022-08-19T00:14:41;1.40;;;1.30;;
11533;SDS011;5823;50.588;8.462;2022-08-19T00:17:07;1.20;;;1.10;;
11533;SDS011;5823;50.588;8.462;2022-08-19T00:19:34;1.17;;;1.08;;
11533;SDS011;5823;50.588;8.462;2022-08-19T00:22:00;1.20;;;1.10;;
11533;SDS011;5823;50.588;8.462;2022-08-19T00:24:27;0.90;;;0.90;;
11533;SDS011;5823;50.588;8.462;2022-08-19T00:26:54;1.30;;;1.20;;
11533;SDS011;5823;50.588;8.462;2022-08-19T00:29:23;0.80;;;0.80;;
11533;SDS011;5823;50.588;8.462;2022-08-19T00:31:50;1.25;;;1.15;;
11533;SDS011;5823;50.588;8.462;2022-08-19T00:34:20;1.02;;;0.93;;
11533;SDS011;5823;50.588;8.462;2022-08-19T00:36:46;1.25;;;1.15;;
11533;SDS011;5823;50.588;8.462;2022-08-19T00:39:13;0.82;;;0.82;;
11533;SDS011;5823;50.588;8.462;2022-08-19T00:41:40;0.95;;;0.93;;
11533;SDS011;5823;50.588;8.462;2022-08-19T00:44:08;1.10;;;1.00;;
11533;SDS011;5823;50.588;8.462;2022-08-19T00:46:37;0.80;;;0.80;;
11533;SDS011;5823;50.588;8.462;2022-08-19T00:49:06;0.88;;;0.88;;
11533;SDS011;5823;50.588;8.462;2022-08-19T00:51:32;0.75;;;0.75;;
11533;SDS011;5823;50.588;8.462;2022-08-19T00:53:59;0.90;;;0.90;;
11533;SDS011;5823;50.588;8.462;2022-08-19T00:56:27;0.90;;;0.90;;
11533;SDS011;5823;50.588;8.462;2022-08-19T00:58:53;1.00;;;0.90;;
11533;SDS011;5823;50.588;8.462;2022-08-19T01:01:20;0.98;;;0.90;;
11533;SDS011;5823;50.588;8.462;2022-08-19T01:03:48;0.93;;;0.93;;
11533;SDS011;5823;50.588;8.462;2022-08-19T01:06:15;0.98;;;0.90;;
11533;SDS011;5823;50.588;8.462;2022-08-19T01:08:41;1.23;;;1.13;;
11533;SDS011;5823;50.588;8.462;2022-08-19T01:11:08;1.02;;;1.00;;
11533;SDS011;5823;50.588;8.462;2022-08-19T01:13:34;0.90;;;0.90;;
11533;SDS011;5823;50.588;8.462;2022-08-19T01:16:02;1.20;;;1.10;;
11533;SDS011;5823;50.588;8.462;2022-08-19T01:18:29;1.20;;;1.10;;
11533;SDS011;5823;50.588;8.462;2022-08-19T01:20:58;1.10;;;1.02;;
11533;SDS011;5823;50.588;8.462;2022-08-19T01:23:27;1.20;;;1.10;;
11533;SDS011;5823;50.588;8.462;2022-08-19T01:26:08;0.88;;;0.88;;
11533;SDS011;5823;50.588;8.462;2022-08-19T01:28:35;1.30;;;1.20;;
11533;SDS011;5823;50.588;8.462;2022-08-19T01:31:02;1.15;;;1.05;;
11533;SDS011;5823;50.588;8.462;2022-08-19T01:33:28;1.00;;;1.00;;
11533;SDS011;5823;50.588;8.462;2022-08-19T01:36:02;1.40;;;1.30;;
11533;SDS011;5823;50.588;8.462;2022-08-19T01:38:30;1.10;;;1.00;;
11533;SDS011;5823;50.588;8.462;2022-08-19T01:40:57;0.98;;;0.95;;
11533;SDS011;5823;50.588;8.462;2022-08-19T01:43:23;1.08;;;1.00;;
11533;SDS011;5823;50.588;8.462;2022-08-19T01:45:49;1.10;;;1.02;;
11533;SDS011;5823;50.588;8.462;2022-08-19T01:48:16;0.90;;;0.90;;
11533;SDS011;5823;50.588;8.462;2022-08-19T01:50:42;0.82;;;0.82;;
11533;SDS011;5823;50.588;8.462;2022-08-19T01:53:10;1.00;;;1.00;;
11533;SDS011;5823;50.588;8.462;2022-08-19T01:55:38;1.10;;;1.00;;
11533;SDS011;5823;50.588;8.462;2022-08-19T01:58:06;0.93;;;0.93;;
11533;SDS011;5823;50.588;8.462;2022-08-19T02:00:33;1.00;;;1.00;;
11533;SDS011;5823;50.588;8.462;2022-08-19T02:02:59;1.30;;;1.20;;
11533;SDS011;5823;50.588;8.462;2022-08-19T02:05:26;0.90;;;0.90;;
11533;SDS011;5823;50.588;8.462;2022-08-19T02:07:54;1.30;;;1.20;;
11533;SDS011;5823;50.588;8.462;2022-08-19T02:10:21;0.93;;;0.93;;
11533;SDS011;5823;50.588;8.462;2022-08-19T02:12:49;0.82;;;0.82;;
11533;SDS011;5823;50.588;8.462;2022-08-19T02:15:16;1.00;;;1.00;;
11533;SDS011;5823;50.588;8.462;2022-08-19T02:17:43;1.40;;;1.30;;
11533;SDS011;5823;50.588;8.462;2022-08-19T02:20:10;1.08;;;1.00;;
11533;SDS011;5823;50.588;8.462;2022-08-19T02:22:38;1.15;;;1.08;;
11533;SDS011;5823;50.588;8.462;2022-08-19T02:25:06;1.23;;;1.13;;
11533;SDS011;5823;50.588;8.462;2022-08-19T02:27:32;1.40;;;1.30;;
11533;SDS011;5823;50.588;8.462;2022-08-19T02:30:00;1.27;;;1.17;;
11533;SDS011;5823;50.588;8.462;2022-08-19T02:32:27;1.10;;;1.00;;
11533;SDS011;5823;50.588;8.462;2022-08-19T02:34:55;0.90;;;0.90;;
11533;SDS011;5823;50.588;8.462;2022-08-19T02:37:21;0.70;;;0.70;;
11533;SDS011;5823;50.588;8.462;2022-08-19T02:40:05;0.88;;;0.88;;
11533;SDS011;5823;50.588;8.462;2022-08-19T02:42:32;0.90;;;0.90;;
11533;SDS011;5823;50.588;8.462;2022-08-19T02:44:58;0.80;;;0.80;;
11533;SDS011;5823;50.588;8.462;2022-08-19T02:47:26;0.98;;;0.98;;
11533;SDS011;5823;50.588;8.462;2022-08-19T02:49:52;1.00;;;1.00;;
11533;SDS011;5823;50.588;8.462;2022-08-19T02:52:19;0.75;;;0.75;;
11533;SDS011;5823;50.588;8.462;2022-08-19T02:54:45;0.80;;;0.80;;
11533;SDS011;5823;50.588;8.462;2022-08-19T02:57:11;0.75;;;0.75;;
11533;SDS011;5823;50.588;8.462;2022-08-19T02:59:38;0.77;;;0.77;;
11533;SDS011;5823;50.588;8.462;2022-08-19T03:02:04;0.82;;;0.82;;
11533;SDS011;5823;50.588;8.462;2022-08-19T03:04:32;0.80;;;0.80;;
11533;SDS011;5823;50.588;8.462;2022-08-19T03:06:58;0.90;;;0.90;;
11533;SDS011;5823;50.588;8.462;2022-08-19T03:09:25;0.85;;;0.85;;
11533;SDS011;5823;50.588;8.462;2022-08-19T03:11:51;0.90;;;0.90;;
11533;SDS011;5823;50.588;8.462;2022-08-19T03:14:17;0.80;;;0.80;;
11533;SDS011;5823;50.588;8.462;2022-08-19T03:16:44;0.80;;;0.80;;
11533;SDS011;5823;50.588;8.462;2022-08-19T03:19:11;0.80;;;0.80;;
11533;SDS011;5823;50.588;8.462;2022-08-19T03:21:39;0.80;;;0.80;;
11533;SDS011;5823;50.588;8.462;2022-08-19T03:24:06;0.88;;;0.85;;
11533;SDS011;5823;50.588;8.462;2022-08-19T03:26:33;0.98;;;0.98;;
11533;SDS011;5823;50.588;8.462;2022-08-19T03:29:01;0.80;;;0.80;;
11533;SDS011;5823;50.588;8.462;2022-08-19T03:31:27;0.63;;;0.63;;
11533;SDS011;5823;50.588;8.462;2022-08-19T03:33:54;0.80;;;0.80;;
11533;SDS011;5823;50.588;8.462;2022-08-19T03:36:22;0.80;;;0.80;;
11533;SDS011;5823;50.588;8.462;2022-08-19T03:38:51;0.95;;;0.95;;
11533;SDS011;5823;50.588;8.462;2022-08-19T03:41:20;0.70;;;0.70;;
11533;SDS011;5823;50.588;8.462;2022-08-19T03:43:47;0.70;;;0.70;;
11533;SDS011;5823;50.588;8.462;2022-08-19T03:46:15;0.82;;;0.82;;
11533;SDS011;5823;50.588;8.462;2022-08-19T03:48:42;0.90;;;0.90;;
11533;SDS011;5823;50.588;8.462;2022-08-19T03:51:14;1.40;;;1.30;;
11533;SDS011;5823;50.588;8.462;2022-08-19T03:53:41;1.10;;;1.00;;
11533;SDS011;5823;50.588;8.462;2022-08-19T03:56:09;1.40;;;1.30;;
11533;SDS011;5823;50.588;8.462;2022-08-19T03:58:37;1.55;;;1.38;;
11533;SDS011;5823;50.588;8.462;2022-08-19T04:01:06;1.20;;;1.10;;
11533;SDS011;5823;50.588;8.462;2022-08-19T04:03:33;1.00;;;0.90;;
11533;SDS011;5823;50.588;8.462;2022-08-19T04:06:08;1.05;;;0.98;;
11533;SDS011;5823;50.588;8.462;2022-08-19T04:08:34;1.00;;;1.00;;
11533;SDS011;5823;50.588;8.462;2022-08-19T04:11:00;0.80;;;0.80;;
11533;SDS011;5823;50.588;8.462;2022-08-19T04:13:28;0.90;;;0.90;;
11533;SDS011;5823;50.588;8.462;2022-08-19T04:15:54;0.90;;;0.90;;
11533;SDS011;5823;50.588;8.462;2022-08-19T04:18:21;0.63;;;0.63;;
11533;SDS011;5823;50.588;8.462;2022-08-19T04:20:47;0.90;;;0.90;;
11533;SDS011;5823;50.588;8.462;2022-08-19T04:23:14;1.02;;;0.93;;
11533;SDS011;5823;50.588;8.462;2022-08-19T04:25:41;1.00;;;1.00;;
11533;SDS011;5823;50.588;8.462;2022-08-19T04:28:09;0.77;;;0.77;;
11533;SDS011;5823;50.588;8.462;2022-08-19T04:30:41;1.25;;;1.15;;
11533;SDS011;5823;50.588;8.462;2022-08-19T04:33:07;1.10;;;1.00;;
11533;SDS011;5823;50.588;8.462;2022-08-19T04:35:34;1.15;;;1.05;;
11533;SDS011;5823;50.588;8.462;2022-08-19T04:38:01;1.27;;;1.17;;
11533;SDS011;5823;50.588;8.462;2022-08-19T04:40:27;1.30;;;1.20;;
11533;SDS011;5823;50.588;8.462;2022-08-19T04:43:11;1.05;;;0.98;;
11533;SDS011;5823;50.588;8.462;2022-08-19T04:45:38;0.85;;;0.85;;
11533;SDS011;5823;50.588;8.462;2022-08-19T04:48:06;0.82;;;0.82;;
11533;SDS011;5823;50.588;8.462;2022-08-19T04:50:32;0.73;;;0.73;;
11533;SDS011;5823;50.588;8.462;2022-08-19T04:52:59;1.38;;;1.27;;
11533;SDS011;5823;50.588;8.462;2022-08-19T04:55:25;0.77;;;0.77;;
11533;SDS011;5823;50.588;8.462;2022-08-19T04:57:52;0.70;;;0.70;;
11533;SDS011;5823;50.588;8.462;2022-08-19T05:00:18;1.20;;;1.10;;
11533;SDS011;5823;50.588;8.462;2022-08-19T05:02:45;1.00;;;1.00;;
11533;SDS011;5823;50.588;8.462;2022-08-19T05:05:13;1.33;;;1.23;;
11533;SDS011;5823;50.588;8.462;2022-08-19T05:07:39;1.00;;;1.00;;
11533;SDS011;5823;50.588;8.462;2022-08-19T05:10:06;1.10;;;1.00;;
11533;SDS011;5823;50.588;8.462;2022-08-19T05:12:33;0.80;;;0.80;;
11533;SDS011;5823;50.588;8.462;2022-08-19T05:14:59;0.70;;;0.70;;
11533;SDS011;5823;50.588;8.462;2022-08-19T05:17:26;0.98;;;0.98;;
11533;SDS011;5823;50.588;8.462;2022-08-19T05:19:53;1.10;;;1.05;;
11533;SDS011;5823;50.588;8.462;2022-08-19T05:22:38;1.20;;;1.10;;
11533;SDS011;5823;50.588;8.462;2022-08-19T05:25:06;0.70;;;0.70;;
11533;SDS011;5823;50.588;8.462;2022-08-19T05:27:35;1.20;;;1.10;;
11533;SDS011;5823;50.588;8.462;2022-08-19T05:30:02;1.25;;;1.15;;
11533;SDS011;5823;50.588;8.462;2022-08-19T05:32:29;1.20;;;1.10;;
11533;SDS011;5823;50.588;8.462;2022-08-19T05:34:55;0.90;;;0.90;;
11533;SDS011;5823;50.588;8.462;2022-08-19T05:37:22;0.88;;;0.88;;
11533;SDS011;5823;50.588;8.462;2022-08-19T05:39:53;0.82;;;0.82;;
11533;SDS011;5823;50.588;8.462;2022-08-19T05:42:20;0.82;;;0.82;;
11533;SDS011;5823;50.588;8.462;2022-08-19T05:44:47;1.30;;;1.20;;
11533;SDS011;5823;50.588;8.462;2022-08-19T05:47:14;1.20;;;1.10;;
11533;SDS011;5823;50.588;8.462;2022-08-19T05:49:41;1.27;;;1.17;;
11533;SDS011;5823;50.588;8.462;2022-08-19T05:52:08;1.73;;;0.98;;
11533;SDS011;5823;50.588;8.462;2022-08-19T05:54:36;1.25;;;1.15;;
11533;SDS011;5823;50.588;8.462;2022-08-19T05:57:06;0.90;;;0.90;;
11533;SDS011;5823;50.588;8.462;2022-08-19T05:59:33;1.40;;;1.30;;
11533;SDS011;5823;50.588;8.462;2022-08-19T06:02:00;1.98;;;1.80;;
11533;SDS011;5823;50.588;8.462;2022-08-19T06:04:27;1.30;;;1.20;;
11533;SDS011;5823;50.588;8.462;2022-08-19T06:06:53;1.40;;;1.30;;
11533;SDS011;5823;50.588;8.462;2022-08-19T06:09:21;1.30;;;1.20;;
11533;SDS011;5823;50.588;8.462;2022-08-19T06:11:48;1.00;;;1.00;;
11533;SDS011;5823;50.588;8.462;2022-08-19T06:14:20;0.85;;;0.85;;
11533;SDS011;5823;50.588;8.462;2022-08-19T06:16:47;1.40;;;1.02;;
11533;SDS011;5823;50.588;8.462;2022-08-19T06:19:16;1.10;;;1.02;;
11533;SDS011;5823;50.588;8.462;2022-08-19T06:21:45;0.93;;;0.93;;
11533;SDS011;5823;50.588;8.462;2022-08-19T06:24:12;0.95;;;0.95;;
11533;SDS011;5823;50.588;8.462;2022-08-19T06:26:40;1.40;;;1.30;;
11533;SDS011;5823;50.588;8.462;2022-08-19T06:29:08;1.50;;;1.40;;
11533;SDS011;5823;50.588;8.462;2022-08-19T06:31:36;1.50;;;1.40;;
11533;SDS011;5823;50.588;8.462;2022-08-19T06:34:04;1.27;;;1.05;;
11533;SDS011;5823;50.588;8.462;2022-08-19T06:36:32;1.15;;;1.05;;
11533;SDS011;5823;50.588;8.462;2022-08-19T06:38:59;0.90;;;0.90;;
11533;SDS011;5823;50.588;8.462;2022-08-19T06:41:25;1.20;;;1.10;;
11533;SDS011;5823;50.588;8.462;2022-08-19T06:43:52;0.75;;;0.75;;
11533;SDS011;5823;50.588;8.462;2022-08-19T06:46:18;1.40;;;1.30;;
11533;SDS011;5823;50.588;8.462;2022-08-19T06:48:46;1.10;;;1.10;;
11533;SDS011;5823;50.588;8.462;2022-08-19T06:51:12;0.90;;;0.90;;
11533;SDS011;5823;50.588;8.462;2022-08-19T06:53:40;0.90;;;0.90;;
11533;SDS011;5823;50.588;8.462;2022-08-19T06:56:12;0.90;;;0.90;;
11533;SDS011;5823;50.588;8.462;2022-08-19T06:58:38;0.80;;;0.80;;
11533;SDS011;5823;50.588;8.462;2022-08-19T07:01:07;0.70;;;0.70;;
11533;SDS011;5823;50.588;8.462;2022-08-19T07:03:34;0.65;;;0.65;;
11533;SDS011;5823;50.588;8.462;2022-08-19T07:06:03;0.57;;;0.57;;
11533;SDS011;5823;50.588;8.462;2022-08-19T07:08:30;0.70;;;0.70;;
11533;SDS011;5823;50.588;8.462;2022-08-19T07:10:56;0.60;;;0.60;;
11533;SDS011;5823;50.588;8.462;2022-08-19T07:13:23;0.90;;;0.90;;
11533;SDS011;5823;50.588;8.462;2022-08-19T07:15:49;0.90;;;0.85;;
11533;SDS011;5823;50.588;8.462;2022-08-19T07:18:16;0.63;;;0.63;;
11533;SDS011;5823;50.588;8.462;2022-08-19T07:20:42;1.10;;;1.00;;
11533;SDS011;5823;50.588;8.462;2022-08-19T07:23:10;1.00;;;0.90;;
11533;SDS011;5823;50.588;8.462;2022-08-19T07:25:36;0.73;;;0.73;;
11533;SDS011;5823;50.588;8.462;2022-08-19T07:28:03;0.65;;;0.65;;
11533;SDS011;5823;50.588;8.462;2022-08-19T07:30:30;0.80;;;0.80;;
11533;SDS011;5823;50.588;8.462;2022-08-19T07:32:57;0.77;;;0.77;;
11533;SDS011;5823;50.588;8.462;2022-08-19T07:35:23;1.48;;;1.38;;
11533;SDS011;5823;50.588;8.462;2022-08-19T07:37:49;1.40;;;1.30;;
11533;SDS011;5823;50.588;8.462;2022-08-19T07:40:19;1.17;;;1.08;;
11533;SDS011;5823;50.588;8.462;2022-08-19T07:42:45;0.90;;;0.90;;
11533;SDS011;5823;50.588;8.462;2022-08-19T07:45:11;1.55;;;1.20;;
11533;SDS011;5823;50.588;8.462;2022-08-19T07:47:38;1.23;;;1.13;;
11533;SDS011;5823;50.588;8.462;2022-08-19T07:50:05;1.10;;;1.08;;
11533;SDS011;5823;50.588;8.462;2022-08-19T07:52:31;1.20;;;1.10;;
11533;SDS011;5823;50.588;8.462;2022-08-19T07:54:58;1.00;;;0.90;;
11533;SDS011;5823;50.588;8.462;2022-08-19T07:57:29;1.00;;;1.00;;
11533;SDS011;5823;50.588;8.462;2022-08-19T07:59:56;0.98;;;0.98;;
11533;SDS011;5823;50.588;8.462;2022-08-19T08:02:23;2.13;;;1.63;;
11533;SDS011;5823;50.588;8.462;2022-08-19T08:04:49;1.30;;;1.20;;
11533;SDS011;5823;50.588;8.462;2022-08-19T08:07:33;1.15;;;1.05;;
11533;SDS011;5823;50.588;8.462;2022-08-19T08:10:16;1.40;;;1.30;;
11533;SDS011;5823;50.588;8.462;2022-08-19T08:12:44;2.05;;;1.77;;
11533;SDS011;5823;50.588;8.462;2022-08-19T08:15:11;1.42;;;1.33;;
11533;SDS011;5823;50.588;8.462;2022-08-19T08:17:41;2.67;;;2.47;;
11533;SDS011;5823;50.588;8.462;2022-08-19T08:20:08;1.60;;;1.50;;
11533;SDS011;5823;50.588;8.462;2022-08-19T08:22:34;3.50;;;2.92;;
11533;SDS011;5823;50.588;8.462;2022-08-19T08:25:19;1.85;;;1.73;;
11533;SDS011;5823;50.588;8.462;2022-08-19T08:27:49;1.90;;;1.80;;
11533;SDS011;5823;50.588;8.462;2022-08-19T08:30:16;1.70;;;1.60;;
11533;SDS011;5823;50.588;8.462;2022-08-19T08:32:44;2.35;;;2.15;;
11533;SDS011;5823;50.588;8.462;2022-08-19T08:35:11;1.90;;;1.70;;
11533;SDS011;5823;50.588;8.462;2022-08-19T08:37:39;1.70;;;1.60;;
11533;SDS011;5823;50.588;8.462;2022-08-19T08:40:06;1.60;;;1.50;;
11533;SDS011;5823;50.588;8.462;2022-08-19T08:42:36;1.90;;;1.80;;
11533;SDS011;5823;50.588;8.462;2022-08-19T08:45:10;1.67;;;1.58;;
11533;SDS011;5823;50.588;8.462;2022-08-19T08:47:41;1.90;;;1.80;;
11533;SDS011;5823;50.588;8.462;2022-08-19T08:50:10;1.70;;;1.60;;
11533;SDS011;5823;50.588;8.462;2022-08-19T08:52:41;1.27;;;1.17;;
11533;SDS011;5823;50.588;8.462;2022-08-19T08:55:11;1.80;;;1.70;;
11533;SDS011;5823;50.588;8.462;2022-08-19T08:57:38;1.38;;;1.30;;
11533;SDS011;5823;50.588;8.462;2022-08-19T09:00:07;1.50;;;1.40;;
11533;SDS011;5823;50.588;8.462;2022-08-19T09:02:35;1.40;;;1.30;;
11533;SDS011;5823;50.588;8.462;2022-08-19T09:05:02;1.50;;;1.40;;
11533;SDS011;5823;50.588;8.462;2022-08-19T09:07:32;1.35;;;1.25;;
11533;SDS011;5823;50.588;8.462;2022-08-19T09:10:02;1.00;;;1.00;;
11533;SDS011;5823;50.588;8.462;2022-08-19T09:12:31;1.58;;;1.48;;
11533;SDS011;5823;50.588;8.462;2022-08-19T09:15:02;1.45;;;1.35;;
11533;SDS011;5823;50.588;8.462;2022-08-19T09:17:29;1.23;;;1.23;;
11533;SDS011;5823;50.588;8.462;2022-08-19T09:20:01;1.63;;;1.52;;
11533;SDS011;5823;50.588;8.462;2022-08-19T09:22:31;1.80;;;1.70;;
11533;SDS011;5823;50.588;8.462;2022-08-19T09:24:57;1.35;;;1.25;;
11533;SDS011;5823;50.588;8.462;2022-08-19T09:27:24;1.35;;;1.25;;
11533;SDS011;5823;50.588;8.462;2022-08-19T09:29:51;1.30;;;1.20;;
11533;SDS011;5823;50.588;8.462;2022-08-19T09:32:18;1.40;;;1.30;;
11533;SDS011;5823;50.588;8.462;2022-08-19T09:34:45;1.50;;;1.40;;
11533;SDS011;5823;50.588;8.462;2022-08-19T09:37:13;1.40;;;1.30;;
11533;SDS011;5823;50.588;8.462;2022-08-19T09:39:39;1.08;;;1.08;;
11533;SDS011;5823;50.588;8.462;2022-08-19T09:42:07;1.52;;;1.42;;
11533;SDS011;5823;50.588;8.462;2022-08-19T09:44:37;1.20;;;1.10;;
11533;SDS011;5823;50.588;8.462;2022-08-19T09:47:03;1.40;;;1.30;;
11533;SDS011;5823;50.588;8.462;2022-08-19T09:49:30;1.27;;;1.17;;
11533;SDS011;5823;50.588;8.462;2022-08-19T09:51:56;1.30;;;1.20;;
11533;SDS011;5823;50.588;8.462;2022-08-19T09:54:24;1.20;;;1.10;;
11533;SDS011;5823;50.588;8.462;2022-08-19T09:56:51;1.20;;;1.10;;
11533;SDS011;5823;50.588;8.462;2022-08-19T09:59:17;1.70;;;1.60;;
11533;SDS011;5823;50.588;8.462;2022-08-19T10:01:44;2.40;;;2.20;;
11533;SDS011;5823;50.588;8.462;2022-08-19T10:04:10;1.80;;;1.70;;
11533;SDS011;5823;50.588;8.462;2022-08-19T10:06:37;2.10;;;1.92;;
11533;SDS011;5823;50.588;8.462;2022-08-19T10:09:04;1.80;;;1.70;;
11533;SDS011;5823;50.588;8.462;2022-08-19T10:11:34;1.90;;;1.80;;
11533;SDS011;5823;50.588;8.462;2022-08-19T10:14:02;1.70;;;1.60;;
11533;SDS011;5823;50.588;8.462;2022-08-19T10:16:30;2.03;;;1.75;;
11533;SDS011;5823;50.588;8.462;2022-08-19T10:18:57;2.55;;;2.10;;
11533;SDS011;5823;50.588;8.462;2022-08-19T10:21:24;2.35;;;2.15;;
11533;SDS011;5823;50.588;8.462;2022-08-19T10:23:52;1.80;;;1.70;;
11533;SDS011;5823;50.588;8.462;2022-08-19T10:26:20;1.40;;;1.30;;
11533;SDS011;5823;50.588;8.462;2022-08-19T10:28:48;1.65;;;1.55;;
11533;SDS011;5823;50.588;8.462;2022-08-19T10:31:15;1.92;;;1.80;;
11533;SDS011;5823;50.588;8.462;2022-08-19T10:33:44;2.38;;;2.20;;
11533;SDS011;5823;50.588;8.462;2022-08-19T10:36:12;2.47;;;2.28;;
11533;SDS011;5823;50.588;8.462;2022-08-19T10:38:40;2.50;;;2.33;;
11533;SDS011;5823;50.588;8.462;2022-08-19T10:41:07;2.63;;;2.42;;
11533;SDS011;5823;50.588;8.462;2022-08-19T10:43:33;3.65;;;3.35;;
11533;SDS011;5823;50.588;8.462;2022-08-19T10:46:04;2.83;;;2.63;;
11533;SDS011;5823;50.588;8.462;2022-08-19T10:48:31;2.50;;;2.30;;
11533;SDS011;5823;50.588;8.462;2022-08-19T10:50:57;2.63;;;2.42;;
11533;SDS011;5823;50.588;8.462;2022-08-19T10:53:41;2.20;;;2.03;;
11533;SDS011;5823;50.588;8.462;2022-08-19T10:56:08;2.67;;;2.47;;
11533;SDS011;5823;50.588;8.462;2022-08-19T10:58:51;2.55;;;2.35;;
11533;SDS011;5823;50.588;8.462;2022-08-19T11:01:19;2.10;;;2.00;;
11533;SDS011;5823;50.588;8.462;2022-08-19T11:03:46;1.90;;;1.80;;
11533;SDS011;5823;50.588;8.462;2022-08-19T11:06:12;2.20;;;2.10;;
11533;SDS011;5823;50.588;8.462;2022-08-19T11:08:38;1.90;;;1.80;;
11533;SDS011;5823;50.588;8.462;2022-08-19T11:11:05;1.92;;;1.83;;
11533;SDS011;5823;50.588;8.462;2022-08-19T11:13:32;1.75;;;1.65;;
11533;SDS011;5823;50.588;8.462;2022-08-19T11:16:01;2.13;;;2.03;;
11533;SDS011;5823;50.588;8.462;2022-08-19T11:18:29;1.90;;;1.80;;
11533;SDS011;5823;50.588;8.462;2022-08-19T11:21:04;1.98;;;1.88;;
11533;SDS011;5823;50.588;8.462;2022-08-19T11:23:31;2.80;;;2.60;;
11533;SDS011;5823;50.588;8.462;2022-08-19T11:25:57;2.00;;;1.90;;
11533;SDS011;5823;50.588;8.462;2022-08-19T11:28:24;1.70;;;1.60;;
11533;SDS011;5823;50.588;8.462;2022-08-19T11:30:51;2.00;;;1.90;;
11533;SDS011;5823;50.588;8.462;2022-08-19T11:33:17;2.60;;;2.40;;
11533;SDS011;5823;50.588;8.462;2022-08-19T11:35:45;2.65;;;2.45;;
11533;SDS011;5823;50.588;8.462;2022-08-19T11:38:11;1.90;;;1.80;;
11533;SDS011;5823;50.588;8.462;2022-08-19T11:40:39;1.60;;;1.50;;
11533;SDS011;5823;50.588;8.462;2022-08-19T11:43:07;1.73;;;1.63;;
11533;SDS011;5823;50.588;8.462;2022-08-19T11:45:34;1.50;;;1.40;;
11533;SDS011;5823;50.588;8.462;2022-08-19T11:48:02;1.70;;;1.60;;
11533;SDS011;5823;50.588;8.462;2022-08-19T11:50:28;2.10;;;2.00;;
11533;SDS011;5823;50.588;8.462;2022-08-19T11:52:56;2.40;;;2.30;;
11533;SDS011;5823;50.588;8.462;2022-08-19T11:55:22;2.85;;;2.58;;
11533;SDS011;5823;50.588;8.462;2022-08-19T11:57:49;1.92;;;1.83;;
11533;SDS011;5823;50.588;8.462;2022-08-19T12:00:15;1.70;;;1.60;;
11533;SDS011;5823;50.588;8.462;2022-08-19T12:02:42;1.73;;;1.63;;
11533;SDS011;5823;50.588;8.462;2022-08-19T12:05:08;1.63;;;1.52;;
11533;SDS011;5823;50.588;8.462;2022-08-19T12:07:35;1.50;;;1.40;;
11533;SDS011;5823;50.588;8.462;2022-08-19T12:10:03;2.00;;;1.80;;
11533;SDS011;5823;50.588;8.462;2022-08-19T12:12:29;1.95;;;1.85;;
11533;SDS011;5823;50.588;8.462;2022-08-19T12:14:56;2.42;;;2.22;;
11533;SDS011;5823;50.588;8.462;2022-08-19T12:17:23;2.10;;;2.00;;
11533;SDS011;5823;50.588;8.462;2022-08-19T12:19:50;2.13;;;2.03;;
11533;SDS011;5823;50.588;8.462;2022-08-19T12:22:16;2.25;;;2.13;;
11533;SDS011;5823;50.588;8.462;2022-08-19T12:24:43;2.38;;;2.20;;
11533;SDS011;5823;50.588;8.462;2022-08-19T12:27:11;2.05;;;1.95;;
11533;SDS011;5823;50.588;8.462;2022-08-19T12:29:37;1.60;;;1.50;;
11533;SDS011;5823;50.588;8.462;2022-08-19T12:32:03;1.60;;;1.50;;
11533;SDS011;5823;50.588;8.462;2022-08-19T12:34:30;1.48;;;1.38;;
11533;SDS011;5823;50.588;8.462;2022-08-19T12:36:57;1.40;;;1.30;;
11533;SDS011;5823;50.588;8.462;2022-08-19T12:39:24;0.77;;;0.77;;
11533;SDS011;5823;50.588;8.462;2022-08-19T12:41:50;1.40;;;1.30;;
11533;SDS011;5823;50.588;8.462;2022-08-19T12:44:18;1.50;;;1.40;;
11533;SDS011;5823;50.588;8.462;2022-08-19T12:46:46;1.60;;;1.50;;
11533;SDS011;5823;50.588;8.462;2022-08-19T12:49:12;1.75;;;1.65;;
11533;SDS011;5823;50.588;8.462;2022-08-19T12:51:38;1.85;;;1.70;;
11533;SDS011;5823;50.588;8.462;2022-08-19T12:54:05;1.40;;;1.30;;
11533;SDS011;5823;50.588;8.462;2022-08-19T12:56:31;1.23;;;1.13;;
11533;SDS011;5823;50.588;8.462;2022-08-19T12:59:00;1.63;;;1.52;;
11533;SDS011;5823;50.588;8.462;2022-08-19T13:01:28;1.90;;;1.80;;
11533;SDS011;5823;50.588;8.462;2022-08-19T13:03:57;1.40;;;1.30;;
11533;SDS011;5823;50.588;8.462;2022-08-19T13:06:24;1.40;;;1.30;;
11533;SDS011;5823;50.588;8.462;2022-08-19T13:08:50;1.40;;;1.30;;
11533;SDS011;5823;50.588;8.462;2022-08-19T13:11:17;1.23;;;1.15;;
11533;SDS011;5823;50.588;8.462;2022-08-19T13:13:45;1.40;;;1.30;;
11533;SDS011;5823;50.588;8.462;2022-08-19T13:16:12;1.50;;;1.40;;
11533;SDS011;5823;50.588;8.462;2022-08-19T13:18:41;1.25;;;1.20;;
11533;SDS011;5823;50.588;8.462;2022-08-19T13:21:09;1.38;;;1.27;;
11533;SDS011;5823;50.588;8.462;2022-08-19T13:23:36;1.45;;;1.35;;
11533;SDS011;5823;50.588;8.462;2022-08-19T13:26:03;1.90;;;1.80;;
11533;SDS011;5823;50.588;8.462;2022-08-19T13:28:30;1.20;;;1.20;;
11533;SDS011;5823;50.588;8.462;2022-08-19T13:31:17;1.50;;;1.40;;
11533;SDS011;5823;50.588;8.462;2022-08-19T13:34:03;1.92;;;1.83;;
11533;SDS011;5823;50.588;8.462;2022-08-19T13:36:30;1.50;;;1.40;;
11533;SDS011;5823;50.588;8.462;2022-08-19T13:38:57;1.60;;;1.50;;
11533;SDS011;5823;50.588;8.462;2022-08-19T13:41:23;1.42;;;1.33;;
11533;SDS011;5823;50.588;8.462;2022-08-19T13:43:50;1.40;;;1.30;;
11533;SDS011;5823;50.588;8.462;2022-08-19T13:46:16;2.10;;;1.15;;
11533;SDS011;5823;50.588;8.462;2022-08-19T13:48:44;1.30;;;1.30;;
11533;SDS011;5823;50.588;8.462;2022-08-19T13:51:12;1.40;;;1.30;;
11533;SDS011;5823;50.588;8.462;2022-08-19T13:53:40;1.50;;;1.40;;
11533;SDS011;5823;50.588;8.462;2022-08-19T13:56:08;1.40;;;1.30;;
11533;SDS011;5823;50.588;8.462;2022-08-19T13:58:35;1.42;;;1.33;;
11533;SDS011;5823;50.588;8.462;2022-08-19T14:01:02;1.60;;;1.50;;
11533;SDS011;5823;50.588;8.462;2022-08-19T14:03:28;1.40;;;1.30;;
11533;SDS011;5823;50.588;8.462;2022-08-19T14:05:55;1.75;;;1.65;;
11533;SDS011;5823;50.588;8.462;2022-08-19T14:08:22;1.38;;;1.30;;
11533;SDS011;5823;50.588;8.462;2022-08-19T14:10:49;1.80;;;1.70;;
11533;SDS011;5823;50.588;8.462;2022-08-19T14:13:17;1.90;;;1.80;;
11533;SDS011;5823;50.588;8.462;2022-08-19T14:15:43;1.70;;;1.60;;
11533;SDS011;5823;50.588;8.462;2022-08-19T14:18:10;1.60;;;1.50;;
11533;SDS011;5823;50.588;8.462;2022-08-19T14:20:37;1.40;;;1.30;;
11533;SDS011;5823;50.588;8.462;2022-08-19T14:23:03;1.25;;;1.15;;
11533;SDS011;5823;50.588;8.462;2022-08-19T14:25:32;1.48;;;1.38;;
11533;SDS011;5823;50.588;8.462;2022-08-19T14:27:59;1.40;;;1.30;;
11533;SDS011;5823;50.588;8.462;2022-08-19T14:30:27;1.40;;;1.30;;
11533;SDS011;5823;50.588;8.462;2022-08-19T14:32:54;1.65;;;1.55;;
11533;SDS011;5823;50.588;8.462;2022-08-19T14:35:21;1.42;;;1.33;;
11533;SDS011;5823;50.588;8.462;2022-08-19T14:37:48;1.20;;;1.10;;
11533;SDS011;5823;50.588;8.462;2022-08-19T14:40:15;1.00;;;1.00;;
11533;SDS011;5823;50.588;8.462;2022-08-19T14:42:43;1.02;;;1.02;;
11533;SDS011;5823;50.588;8.462;2022-08-19T14:45:10;0.90;;;0.90;;
11533;SDS011;5823;50.588;8.462;2022-08-19T14:47:37;0.98;;;0.98;;
11533;SDS011;5823;50.588;8.462;2022-08-19T14:50:04;1.35;;;1.25;;
11533;SDS011;5823;50.588;8.462;2022-08-19T14:52:31;1.00;;;1.00;;
11533;SDS011;5823;50.588;8.462;2022-08-19T14:54:57;1.20;;;1.20;;
11533;SDS011;5823;50.588;8.462;2022-08-19T14:57:24;1.17;;;1.17;;
11533;SDS011;5823;50.588;8.462;2022-08-19T14:59:51;1.15;;;1.10;;
11533;SDS011;5823;50.588;8.462;2022-08-19T15:02:18;1.30;;;1.20;;
11533;SDS011;5823;50.588;8.462;2022-08-19T15:04:45;1.40;;;1.30;;